sensor_id;sensor_type;location;lat;lon;timestamp;P1;durP1;ratioP1;P2;durP2;ratioP2
70126;SDS011;57491;42.694;23.314;2023-12-29T00:00:05;111.60;;;61.63;;
70126;SDS011;57491;42.694;23.314;2023-12-29T00:02:34;121.35;;;62.97;;
70126;SDS011;57491;42.694;23.314;2023-12-29T00:05:01;118.35;;;64.90;;
70126;SDS011;57491;42.694;23.314;2023-12-29T00:07:30;119.93;;;62.83;;
70126;SDS011;57491;42.694;23.314;2023-12-29T00:09:58;116.07;;;64.18;;
70126;SDS011;57491;42.694;23.314;2023-12-29T00:12:25;118.87;;;63.20;;
70126;SDS011;57491;42.694;23.314;2023-12-29T00:14:52;125.03;;;63.58;;
70126;SDS011;57491;42.694;23.314;2023-12-29T00:17:20;120.65;;;64.65;;
70126;SDS011;57491;42.694;23.314;2023-12-29T00:19:47;116.65;;;63.17;;
70126;SDS011;57491;42.694;23.314;2023-12-29T00:22:14;109.10;;;59.58;;
70126;SDS011;57491;42.694;23.314;2023-12-29T00:24:43;111.30;;;62.70;;
70126;SDS011;57491;42.694;23.314;2023-12-29T00:27:11;120.72;;;65.82;;
70126;SDS011;57491;42.694;23.314;2023-12-29T00:29:39;116.53;;;59.40;;
70126;SDS011;57491;42.694;23.314;2023-12-29T00:32:06;105.13;;;57.42;;
70126;SDS011;57491;42.694;23.314;2023-12-29T00:34:33;115.13;;;58.85;;
70126;SDS011;57491;42.694;23.314;2023-12-29T00:37:03;115.82;;;61.03;;
70126;SDS011;57491;42.694;23.314;2023-12-29T00:39:31;102.78;;;59.33;;
70126;SDS011;57491;42.694;23.314;2023-12-29T00:42:05;116.28;;;63.53;;
70126;SDS011;57491;42.694;23.314;2023-12-29T00:44:33;115.10;;;61.38;;
70126;SDS011;57491;42.694;23.314;2023-12-29T00:47:01;116.43;;;62.03;;
70126;SDS011;57491;42.694;23.314;2023-12-29T00:49:29;102.10;;;54.58;;
70126;SDS011;57491;42.694;23.314;2023-12-29T00:51:56;107.22;;;58.40;;
70126;SDS011;57491;42.694;23.314;2023-12-29T00:54:24;120.65;;;60.10;;
70126;SDS011;57491;42.694;23.314;2023-12-29T00:56:51;111.07;;;60.13;;
70126;SDS011;57491;42.694;23.314;2023-12-29T00:59:20;110.28;;;57.30;;
70126;SDS011;57491;42.694;23.314;2023-12-29T01:01:47;121.07;;;61.53;;
70126;SDS011;57491;42.694;23.314;2023-12-29T01:04:14;119.63;;;64.33;;
70126;SDS011;57491;42.694;23.314;2023-12-29T01:06:42;113.32;;;59.45;;
70126;SDS011;57491;42.694;23.314;2023-12-29T01:09:09;132.32;;;61.70;;
70126;SDS011;57491;42.694;23.314;2023-12-29T01:11:37;111.32;;;60.38;;
70126;SDS011;57491;42.694;23.314;2023-12-29T01:14:04;118.57;;;61.50;;
70126;SDS011;57491;42.694;23.314;2023-12-29T01:16:33;120.47;;;61.65;;
70126;SDS011;57491;42.694;23.314;2023-12-29T01:19:01;123.25;;;62.65;;
70126;SDS011;57491;42.694;23.314;2023-12-29T01:21:28;125.25;;;62.95;;
70126;SDS011;57491;42.694;23.314;2023-12-29T01:23:59;122.10;;;61.58;;
70126;SDS011;57491;42.694;23.314;2023-12-29T01:26:26;121.80;;;64.20;;
70126;SDS011;57491;42.694;23.314;2023-12-29T01:28:54;125.43;;;64.65;;
70126;SDS011;57491;42.694;23.314;2023-12-29T01:31:21;120.07;;;62.35;;
70126;SDS011;57491;42.694;23.314;2023-12-29T01:33:50;115.95;;;61.05;;
70126;SDS011;57491;42.694;23.314;2023-12-29T01:36:17;124.20;;;61.55;;
70126;SDS011;57491;42.694;23.314;2023-12-29T01:38:45;113.75;;;59.42;;
70126;SDS011;57491;42.694;23.314;2023-12-29T01:41:13;122.78;;;61.15;;
70126;SDS011;57491;42.694;23.314;2023-12-29T01:46:23;109.03;;;55.97;;
70126;SDS011;57491;42.694;23.314;2023-12-29T01:48:54;109.65;;;56.90;;
70126;SDS011;57491;42.694;23.314;2023-12-29T01:51:24;102.68;;;57.28;;
70126;SDS011;57491;42.694;23.314;2023-12-29T01:53:54;106.68;;;57.22;;
70126;SDS011;57491;42.694;23.314;2023-12-29T01:56:24;110.32;;;59.78;;
70126;SDS011;57491;42.694;23.314;2023-12-29T02:01:23;100.40;;;58.13;;
70126;SDS011;57491;42.694;23.314;2023-12-29T02:03:50;108.90;;;56.80;;
70126;SDS011;57491;42.694;23.314;2023-12-29T02:08:48;108.85;;;58.85;;
70126;SDS011;57491;42.694;23.314;2023-12-29T02:11:17;103.35;;;57.20;;
70126;SDS011;57491;42.694;23.314;2023-12-29T02:13:44;105.78;;;55.88;;
70126;SDS011;57491;42.694;23.314;2023-12-29T02:16:19;106.90;;;55.72;;
70126;SDS011;57491;42.694;23.314;2023-12-29T02:18:52;106.65;;;55.80;;
70126;SDS011;57491;42.694;23.314;2023-12-29T02:21:24;101.53;;;55.88;;
70126;SDS011;57491;42.694;23.314;2023-12-29T02:23:52;104.05;;;56.58;;
70126;SDS011;57491;42.694;23.314;2023-12-29T02:26:22;104.65;;;57.13;;
70126;SDS011;57491;42.694;23.314;2023-12-29T02:28:53;110.72;;;55.95;;
70126;SDS011;57491;42.694;23.314;2023-12-29T02:31:27;107.28;;;55.45;;
70126;SDS011;57491;42.694;23.314;2023-12-29T02:33:56;106.80;;;53.35;;
70126;SDS011;57491;42.694;23.314;2023-12-29T02:36:24;120.03;;;64.80;;
70126;SDS011;57491;42.694;23.314;2023-12-29T02:38:52;135.90;;;68.85;;
70126;SDS011;57491;42.694;23.314;2023-12-29T02:41:22;133.77;;;69.57;;
70126;SDS011;57491;42.694;23.314;2023-12-29T02:43:50;137.05;;;69.50;;
70126;SDS011;57491;42.694;23.314;2023-12-29T02:46:18;123.10;;;66.97;;
70126;SDS011;57491;42.694;23.314;2023-12-29T02:48:45;117.13;;;62.53;;
70126;SDS011;57491;42.694;23.314;2023-12-29T02:51:13;112.35;;;61.47;;
70126;SDS011;57491;42.694;23.314;2023-12-29T02:53:40;111.60;;;58.55;;
70126;SDS011;57491;42.694;23.314;2023-12-29T02:56:07;113.97;;;59.67;;
70126;SDS011;57491;42.694;23.314;2023-12-29T02:58:36;107.47;;;55.65;;
70126;SDS011;57491;42.694;23.314;2023-12-29T03:01:04;115.60;;;57.22;;
70126;SDS011;57491;42.694;23.314;2023-12-29T03:03:31;100.82;;;54.20;;
70126;SDS011;57491;42.694;23.314;2023-12-29T03:05:58;102.00;;;51.20;;
70126;SDS011;57491;42.694;23.314;2023-12-29T03:08:26;97.25;;;53.00;;
70126;SDS011;57491;42.694;23.314;2023-12-29T03:10:53;103.03;;;51.17;;
70126;SDS011;57491;42.694;23.314;2023-12-29T03:13:20;92.38;;;48.80;;
70126;SDS011;57491;42.694;23.314;2023-12-29T03:15:49;90.43;;;48.25;;
70126;SDS011;57491;42.694;23.314;2023-12-29T03:18:16;91.70;;;45.75;;
70126;SDS011;57491;42.694;23.314;2023-12-29T03:20:44;105.35;;;48.28;;
70126;SDS011;57491;42.694;23.314;2023-12-29T03:23:12;85.90;;;44.75;;
70126;SDS011;57491;42.694;23.314;2023-12-29T03:25:39;90.03;;;44.90;;
70126;SDS011;57491;42.694;23.314;2023-12-29T03:28:06;83.80;;;45.65;;
70126;SDS011;57491;42.694;23.314;2023-12-29T03:30:33;83.38;;;43.65;;
70126;SDS011;57491;42.694;23.314;2023-12-29T03:33:03;89.50;;;45.90;;
70126;SDS011;57491;42.694;23.314;2023-12-29T03:35:30;89.88;;;46.03;;
70126;SDS011;57491;42.694;23.314;2023-12-29T03:37:57;85.45;;;43.10;;
70126;SDS011;57491;42.694;23.314;2023-12-29T03:40:25;90.03;;;45.25;;
70126;SDS011;57491;42.694;23.314;2023-12-29T03:42:52;91.60;;;47.17;;
70126;SDS011;57491;42.694;23.314;2023-12-29T03:45:19;93.97;;;46.70;;
70126;SDS011;57491;42.694;23.314;2023-12-29T03:47:46;88.57;;;45.60;;
70126;SDS011;57491;42.694;23.314;2023-12-29T03:50:16;90.65;;;45.03;;
70126;SDS011;57491;42.694;23.314;2023-12-29T03:52:43;87.00;;;44.42;;
70126;SDS011;57491;42.694;23.314;2023-12-29T03:55:11;89.93;;;45.88;;
70126;SDS011;57491;42.694;23.314;2023-12-29T03:57:38;88.07;;;47.72;;
70126;SDS011;57491;42.694;23.314;2023-12-29T04:00:06;93.63;;;48.60;;
70126;SDS011;57491;42.694;23.314;2023-12-29T04:02:34;90.93;;;47.20;;
70126;SDS011;57491;42.694;23.314;2023-12-29T04:05:02;92.32;;;47.50;;
70126;SDS011;57491;42.694;23.314;2023-12-29T04:07:32;89.68;;;48.67;;
70126;SDS011;57491;42.694;23.314;2023-12-29T04:10:00;95.38;;;48.58;;
70126;SDS011;57491;42.694;23.314;2023-12-29T04:12:27;89.78;;;48.35;;
70126;SDS011;57491;42.694;23.314;2023-12-29T04:14:54;89.20;;;50.65;;
70126;SDS011;57491;42.694;23.314;2023-12-29T04:17:22;90.32;;;49.55;;
70126;SDS011;57491;42.694;23.314;2023-12-29T04:19:49;91.68;;;49.55;;
70126;SDS011;57491;42.694;23.314;2023-12-29T04:22:16;95.07;;;49.13;;
70126;SDS011;57491;42.694;23.314;2023-12-29T04:27:13;90.15;;;48.67;;
70126;SDS011;57491;42.694;23.314;2023-12-29T04:29:41;91.78;;;47.35;;
70126;SDS011;57491;42.694;23.314;2023-12-29T04:32:09;96.10;;;50.83;;
70126;SDS011;57491;42.694;23.314;2023-12-29T04:34:37;101.25;;;51.20;;
70126;SDS011;57491;42.694;23.314;2023-12-29T04:37:04;96.10;;;49.55;;
70126;SDS011;57491;42.694;23.314;2023-12-29T04:39:31;95.75;;;47.80;;
70126;SDS011;57491;42.694;23.314;2023-12-29T04:42:01;86.45;;;45.90;;
70126;SDS011;57491;42.694;23.314;2023-12-29T04:44:28;91.97;;;49.33;;
70126;SDS011;57491;42.694;23.314;2023-12-29T04:46:55;88.97;;;46.38;;
70126;SDS011;57491;42.694;23.314;2023-12-29T04:49:23;77.95;;;43.92;;
70126;SDS011;57491;42.694;23.314;2023-12-29T04:51:50;79.97;;;43.50;;
70126;SDS011;57491;42.694;23.314;2023-12-29T04:54:18;78.55;;;41.60;;
70126;SDS011;57491;42.694;23.314;2023-12-29T04:56:45;85.75;;;43.25;;
70126;SDS011;57491;42.694;23.314;2023-12-29T04:59:14;80.47;;;41.72;;
70126;SDS011;57491;42.694;23.314;2023-12-29T05:01:41;80.85;;;40.83;;
70126;SDS011;57491;42.694;23.314;2023-12-29T05:04:08;78.32;;;40.67;;
70126;SDS011;57491;42.694;23.314;2023-12-29T05:06:36;73.50;;;39.92;;
70126;SDS011;57491;42.694;23.314;2023-12-29T05:09:03;78.32;;;40.35;;
70126;SDS011;57491;42.694;23.314;2023-12-29T05:11:30;75.65;;;41.40;;
70126;SDS011;57491;42.694;23.314;2023-12-29T05:13:58;78.55;;;41.47;;
70126;SDS011;57491;42.694;23.314;2023-12-29T05:16:27;79.07;;;39.15;;
70126;SDS011;57491;42.694;23.314;2023-12-29T05:18:54;81.05;;;41.60;;
70126;SDS011;57491;42.694;23.314;2023-12-29T05:21:21;87.55;;;40.72;;
70126;SDS011;57491;42.694;23.314;2023-12-29T05:23:50;82.50;;;41.17;;
70126;SDS011;57491;42.694;23.314;2023-12-29T05:26:17;84.10;;;41.60;;
70126;SDS011;57491;42.694;23.314;2023-12-29T05:28:44;81.07;;;42.83;;
70126;SDS011;57491;42.694;23.314;2023-12-29T05:31:12;83.10;;;43.60;;
70126;SDS011;57491;42.694;23.314;2023-12-29T05:33:41;88.20;;;44.90;;
70126;SDS011;57491;42.694;23.314;2023-12-29T05:36:08;82.60;;;42.35;;
70126;SDS011;57491;42.694;23.314;2023-12-29T05:38:36;77.95;;;42.30;;
70126;SDS011;57491;42.694;23.314;2023-12-29T05:41:06;82.18;;;42.05;;
70126;SDS011;57491;42.694;23.314;2023-12-29T05:43:34;88.00;;;41.78;;
70126;SDS011;57491;42.694;23.314;2023-12-29T05:46:06;78.85;;;40.85;;
70126;SDS011;57491;42.694;23.314;2023-12-29T05:48:37;72.78;;;40.45;;
70126;SDS011;57491;42.694;23.314;2023-12-29T05:53:35;75.57;;;37.15;;
70126;SDS011;57491;42.694;23.314;2023-12-29T05:56:06;71.25;;;38.38;;
70126;SDS011;57491;42.694;23.314;2023-12-29T05:58:33;75.32;;;41.85;;
70126;SDS011;57491;42.694;23.314;2023-12-29T06:01:01;75.00;;;40.80;;
70126;SDS011;57491;42.694;23.314;2023-12-29T06:03:29;75.18;;;41.55;;
70126;SDS011;57491;42.694;23.314;2023-12-29T06:05:56;81.28;;;40.88;;
70126;SDS011;57491;42.694;23.314;2023-12-29T06:08:25;87.05;;;41.88;;
70126;SDS011;57491;42.694;23.314;2023-12-29T06:10:53;75.22;;;40.72;;
70126;SDS011;57491;42.694;23.314;2023-12-29T06:13:20;78.43;;;38.17;;
70126;SDS011;57491;42.694;23.314;2023-12-29T06:15:48;80.07;;;40.17;;
70126;SDS011;57491;42.694;23.314;2023-12-29T06:18:15;80.15;;;40.50;;
70126;SDS011;57491;42.694;23.314;2023-12-29T06:20:43;77.32;;;39.08;;
70126;SDS011;57491;42.694;23.314;2023-12-29T06:23:10;77.75;;;38.95;;
70126;SDS011;57491;42.694;23.314;2023-12-29T06:25:41;81.72;;;40.17;;
70126;SDS011;57491;42.694;23.314;2023-12-29T06:28:09;79.63;;;39.58;;
70126;SDS011;57491;42.694;23.314;2023-12-29T06:30:36;76.90;;;38.95;;
70126;SDS011;57491;42.694;23.314;2023-12-29T06:33:04;78.72;;;39.47;;
70126;SDS011;57491;42.694;23.314;2023-12-29T06:35:43;79.45;;;40.70;;
70126;SDS011;57491;42.694;23.314;2023-12-29T06:38:12;76.45;;;39.22;;
70126;SDS011;57491;42.694;23.314;2023-12-29T06:40:46;85.78;;;41.92;;
70126;SDS011;57491;42.694;23.314;2023-12-29T06:43:20;79.93;;;42.60;;
70126;SDS011;57491;42.694;23.314;2023-12-29T06:45:49;82.45;;;42.72;;
70126;SDS011;57491;42.694;23.314;2023-12-29T06:48:18;75.70;;;40.83;;
70126;SDS011;57491;42.694;23.314;2023-12-29T06:50:46;83.35;;;41.38;;
70126;SDS011;57491;42.694;23.314;2023-12-29T06:53:15;76.40;;;42.42;;
70126;SDS011;57491;42.694;23.314;2023-12-29T06:55:45;72.80;;;40.35;;
70126;SDS011;57491;42.694;23.314;2023-12-29T06:58:13;79.55;;;43.28;;
70126;SDS011;57491;42.694;23.314;2023-12-29T07:00:40;87.32;;;44.15;;
70126;SDS011;57491;42.694;23.314;2023-12-29T07:03:08;81.95;;;43.80;;
70126;SDS011;57491;42.694;23.314;2023-12-29T07:05:35;88.57;;;44.75;;
70126;SDS011;57491;42.694;23.314;2023-12-29T07:08:03;79.88;;;43.63;;
70126;SDS011;57491;42.694;23.314;2023-12-29T07:10:31;75.95;;;42.92;;
70126;SDS011;57491;42.694;23.314;2023-12-29T07:13:00;88.15;;;44.72;;
70126;SDS011;57491;42.694;23.314;2023-12-29T07:15:28;79.05;;;42.75;;
70126;SDS011;57491;42.694;23.314;2023-12-29T07:17:55;79.55;;;44.85;;
70126;SDS011;57491;42.694;23.314;2023-12-29T07:20:22;78.38;;;44.42;;
70126;SDS011;57491;42.694;23.314;2023-12-29T07:22:50;82.00;;;44.08;;
70126;SDS011;57491;42.694;23.314;2023-12-29T07:25:17;81.93;;;45.85;;
70126;SDS011;57491;42.694;23.314;2023-12-29T07:27:44;82.93;;;46.85;;
70126;SDS011;57491;42.694;23.314;2023-12-29T07:30:20;76.15;;;44.58;;
70126;SDS011;57491;42.694;23.314;2023-12-29T07:32:47;73.70;;;45.20;;
70126;SDS011;57491;42.694;23.314;2023-12-29T07:35:15;80.90;;;45.40;;
70126;SDS011;57491;42.694;23.314;2023-12-29T07:37:45;73.78;;;43.78;;
70126;SDS011;57491;42.694;23.314;2023-12-29T07:40:13;82.80;;;47.40;;
70126;SDS011;57491;42.694;23.314;2023-12-29T07:42:42;88.13;;;50.85;;
70126;SDS011;57491;42.694;23.314;2023-12-29T07:45:12;83.63;;;50.00;;
70126;SDS011;57491;42.694;23.314;2023-12-29T07:50:09;87.72;;;47.13;;
70126;SDS011;57491;42.694;23.314;2023-12-29T07:52:37;82.50;;;47.58;;
70126;SDS011;57491;42.694;23.314;2023-12-29T07:55:06;88.35;;;48.28;;
70126;SDS011;57491;42.694;23.314;2023-12-29T07:57:34;76.10;;;48.05;;
70126;SDS011;57491;42.694;23.314;2023-12-29T08:02:32;79.65;;;46.20;;
70126;SDS011;57491;42.694;23.314;2023-12-29T08:05:02;94.10;;;49.40;;
70126;SDS011;57491;42.694;23.314;2023-12-29T08:07:30;92.50;;;50.22;;
70126;SDS011;57491;42.694;23.314;2023-12-29T08:12:26;92.05;;;50.72;;
70126;SDS011;57491;42.694;23.314;2023-12-29T08:17:22;90.65;;;49.90;;
70126;SDS011;57491;42.694;23.314;2023-12-29T08:19:52;93.03;;;49.70;;
70126;SDS011;57491;42.694;23.314;2023-12-29T08:24:49;83.57;;;50.65;;
70126;SDS011;57491;42.694;23.314;2023-12-29T08:27:22;86.53;;;51.17;;
70126;SDS011;57491;42.694;23.314;2023-12-29T08:29:54;82.00;;;46.80;;
70126;SDS011;57491;42.694;23.314;2023-12-29T08:32:21;89.78;;;47.97;;
70126;SDS011;57491;42.694;23.314;2023-12-29T08:34:50;83.95;;;49.65;;
70126;SDS011;57491;42.694;23.314;2023-12-29T08:37:19;92.82;;;50.30;;
70126;SDS011;57491;42.694;23.314;2023-12-29T08:39:48;87.18;;;50.55;;
70126;SDS011;57491;42.694;23.314;2023-12-29T08:42:18;85.53;;;50.45;;
70126;SDS011;57491;42.694;23.314;2023-12-29T08:44:47;99.90;;;54.13;;
70126;SDS011;57491;42.694;23.314;2023-12-29T08:47:14;89.30;;;51.50;;
70126;SDS011;57491;42.694;23.314;2023-12-29T08:49:43;87.45;;;52.55;;
70126;SDS011;57491;42.694;23.314;2023-12-29T08:54:38;85.40;;;51.95;;
70126;SDS011;57491;42.694;23.314;2023-12-29T08:57:07;86.90;;;54.15;;
70126;SDS011;57491;42.694;23.314;2023-12-29T08:59:35;88.90;;;55.60;;
70126;SDS011;57491;42.694;23.314;2023-12-29T09:02:03;89.38;;;56.85;;
70126;SDS011;57491;42.694;23.314;2023-12-29T09:04:30;95.43;;;58.58;;
70126;SDS011;57491;42.694;23.314;2023-12-29T09:07:01;89.90;;;58.50;;
70126;SDS011;57491;42.694;23.314;2023-12-29T09:09:30;89.10;;;57.35;;
70126;SDS011;57491;42.694;23.314;2023-12-29T09:11:58;85.78;;;55.25;;
70126;SDS011;57491;42.694;23.314;2023-12-29T09:14:27;93.80;;;57.88;;
70126;SDS011;57491;42.694;23.314;2023-12-29T09:16:55;92.22;;;56.65;;
70126;SDS011;57491;42.694;23.314;2023-12-29T09:19:23;87.43;;;55.60;;
70126;SDS011;57491;42.694;23.314;2023-12-29T09:21:50;76.85;;;54.83;;
70126;SDS011;57491;42.694;23.314;2023-12-29T09:24:18;80.35;;;53.40;;
70126;SDS011;57491;42.694;23.314;2023-12-29T09:26:45;91.50;;;56.95;;
70126;SDS011;57491;42.694;23.314;2023-12-29T09:29:13;84.68;;;55.58;;
70126;SDS011;57491;42.694;23.314;2023-12-29T09:31:42;82.68;;;56.30;;
70126;SDS011;57491;42.694;23.314;2023-12-29T09:34:10;83.45;;;56.22;;
70126;SDS011;57491;42.694;23.314;2023-12-29T09:36:37;88.07;;;54.55;;
70126;SDS011;57491;42.694;23.314;2023-12-29T09:39:05;85.18;;;56.60;;
70126;SDS011;57491;42.694;23.314;2023-12-29T09:41:38;83.70;;;56.53;;
70126;SDS011;57491;42.694;23.314;2023-12-29T09:44:15;81.95;;;56.58;;
70126;SDS011;57491;42.694;23.314;2023-12-29T09:46:53;84.50;;;58.40;;
70126;SDS011;57491;42.694;23.314;2023-12-29T09:49:22;78.00;;;58.22;;
70126;SDS011;57491;42.694;23.314;2023-12-29T09:51:50;82.35;;;55.97;;
70126;SDS011;57491;42.694;23.314;2023-12-29T09:54:20;72.82;;;54.42;;
70126;SDS011;57491;42.694;23.314;2023-12-29T09:56:52;81.80;;;52.35;;
70126;SDS011;57491;42.694;23.314;2023-12-29T09:59:20;78.28;;;54.03;;
70126;SDS011;57491;42.694;23.314;2023-12-29T10:01:58;79.93;;;55.63;;
70126;SDS011;57491;42.694;23.314;2023-12-29T10:04:32;81.65;;;54.33;;
70126;SDS011;57491;42.694;23.314;2023-12-29T10:07:03;76.93;;;55.50;;
70126;SDS011;57491;42.694;23.314;2023-12-29T10:09:36;78.10;;;56.17;;
70126;SDS011;57491;42.694;23.314;2023-12-29T10:12:04;81.22;;;57.33;;
70126;SDS011;57491;42.694;23.314;2023-12-29T10:14:41;82.20;;;58.35;;
70126;SDS011;57491;42.694;23.314;2023-12-29T10:17:22;82.90;;;58.30;;
70126;SDS011;57491;42.694;23.314;2023-12-29T10:19:58;84.65;;;60.20;;
70126;SDS011;57491;42.694;23.314;2023-12-29T10:22:40;80.10;;;58.13;;
70126;SDS011;57491;42.694;23.314;2023-12-29T10:25:18;71.00;;;51.70;;
70126;SDS011;57491;42.694;23.314;2023-12-29T10:27:47;76.68;;;56.67;;
70126;SDS011;57491;42.694;23.314;2023-12-29T10:30:15;71.03;;;54.88;;
70126;SDS011;57491;42.694;23.314;2023-12-29T10:32:52;71.15;;;54.80;;
70126;SDS011;57491;42.694;23.314;2023-12-29T10:35:20;71.82;;;55.00;;
70126;SDS011;57491;42.694;23.314;2023-12-29T10:40:17;75.05;;;54.50;;
70126;SDS011;57491;42.694;23.314;2023-12-29T10:42:51;69.20;;;54.17;;
70126;SDS011;57491;42.694;23.314;2023-12-29T10:45:23;74.00;;;56.65;;
70126;SDS011;57491;42.694;23.314;2023-12-29T10:47:52;69.70;;;56.75;;
70126;SDS011;57491;42.694;23.314;2023-12-29T10:50:22;71.35;;;56.88;;
70126;SDS011;57491;42.694;23.314;2023-12-29T10:52:53;76.45;;;54.47;;
70126;SDS011;57491;42.694;23.314;2023-12-29T10:55:37;83.75;;;57.88;;
70126;SDS011;57491;42.694;23.314;2023-12-29T10:58:05;74.15;;;56.45;;
70126;SDS011;57491;42.694;23.314;2023-12-29T11:00:33;75.57;;;55.28;;
70126;SDS011;57491;42.694;23.314;2023-12-29T11:03:02;64.50;;;53.38;;
70126;SDS011;57491;42.694;23.314;2023-12-29T11:05:30;69.30;;;51.75;;
70126;SDS011;57491;42.694;23.314;2023-12-29T11:07:59;63.45;;;52.03;;
70126;SDS011;57491;42.694;23.314;2023-12-29T11:10:26;67.85;;;50.63;;
70126;SDS011;57491;42.694;23.314;2023-12-29T11:12:54;64.68;;;50.60;;
70126;SDS011;57491;42.694;23.314;2023-12-29T11:15:24;61.17;;;51.92;;
70126;SDS011;57491;42.694;23.314;2023-12-29T11:17:53;72.30;;;53.47;;
70126;SDS011;57491;42.694;23.314;2023-12-29T11:20:32;61.83;;;52.08;;
70126;SDS011;57491;42.694;23.314;2023-12-29T11:23:05;71.32;;;51.75;;
70126;SDS011;57491;42.694;23.314;2023-12-29T11:25:34;65.68;;;51.13;;
70126;SDS011;57491;42.694;23.314;2023-12-29T11:28:01;76.28;;;51.90;;
70126;SDS011;57491;42.694;23.314;2023-12-29T11:30:31;65.53;;;51.28;;
70126;SDS011;57491;42.694;23.314;2023-12-29T11:33:02;62.47;;;51.33;;
70126;SDS011;57491;42.694;23.314;2023-12-29T11:35:43;65.78;;;51.03;;
70126;SDS011;57491;42.694;23.314;2023-12-29T11:38:33;59.65;;;50.17;;
70126;SDS011;57491;42.694;23.314;2023-12-29T11:41:13;61.17;;;50.28;;
70126;SDS011;57491;42.694;23.314;2023-12-29T11:43:57;63.58;;;50.20;;
70126;SDS011;57491;42.694;23.314;2023-12-29T11:46:38;57.55;;;49.80;;
70126;SDS011;57491;42.694;23.314;2023-12-29T11:49:09;58.38;;;49.40;;
70126;SDS011;57491;42.694;23.314;2023-12-29T11:51:42;53.67;;;47.10;;
70126;SDS011;57491;42.694;23.314;2023-12-29T11:54:21;58.30;;;49.08;;
70126;SDS011;57491;42.694;23.314;2023-12-29T11:56:52;55.35;;;49.35;;
70126;SDS011;57491;42.694;23.314;2023-12-29T11:59:23;65.18;;;50.88;;
70126;SDS011;57491;42.694;23.314;2023-12-29T12:01:52;57.95;;;51.33;;
70126;SDS011;57491;42.694;23.314;2023-12-29T12:04:38;61.42;;;49.67;;
70126;SDS011;57491;42.694;23.314;2023-12-29T12:07:09;60.20;;;51.05;;
70126;SDS011;57491;42.694;23.314;2023-12-29T12:09:40;70.45;;;50.58;;
70126;SDS011;57491;42.694;23.314;2023-12-29T12:12:07;58.78;;;49.47;;
70126;SDS011;57491;42.694;23.314;2023-12-29T12:14:44;57.70;;;49.17;;
70126;SDS011;57491;42.694;23.314;2023-12-29T12:17:12;67.68;;;51.92;;
70126;SDS011;57491;42.694;23.314;2023-12-29T12:19:53;59.88;;;50.42;;
70126;SDS011;57491;42.694;23.314;2023-12-29T12:22:25;65.72;;;57.42;;
70126;SDS011;57491;42.694;23.314;2023-12-29T12:24:56;69.38;;;54.40;;
70126;SDS011;57491;42.694;23.314;2023-12-29T12:27:25;65.25;;;52.67;;
70126;SDS011;57491;42.694;23.314;2023-12-29T12:29:54;64.65;;;52.92;;
70126;SDS011;57491;42.694;23.314;2023-12-29T12:33:03;68.00;;;53.20;;
70126;SDS011;57491;42.694;23.314;2023-12-29T12:35:31;65.80;;;54.03;;
70126;SDS011;57491;42.694;23.314;2023-12-29T12:38:10;63.15;;;53.05;;
70126;SDS011;57491;42.694;23.314;2023-12-29T12:41:11;67.15;;;52.35;;
70126;SDS011;57491;42.694;23.314;2023-12-29T12:43:39;61.72;;;51.42;;
70126;SDS011;57491;42.694;23.314;2023-12-29T12:46:14;67.95;;;52.33;;
70126;SDS011;57491;42.694;23.314;2023-12-29T12:48:42;64.32;;;53.35;;
70126;SDS011;57491;42.694;23.314;2023-12-29T12:51:13;62.42;;;52.65;;
70126;SDS011;57491;42.694;23.314;2023-12-29T12:53:42;64.90;;;53.08;;
70126;SDS011;57491;42.694;23.314;2023-12-29T12:56:12;66.47;;;54.72;;
70126;SDS011;57491;42.694;23.314;2023-12-29T12:58:40;69.50;;;52.47;;
70126;SDS011;57491;42.694;23.314;2023-12-29T13:01:08;62.60;;;50.53;;
70126;SDS011;57491;42.694;23.314;2023-12-29T13:03:36;62.45;;;49.53;;
70126;SDS011;57491;42.694;23.314;2023-12-29T13:06:05;57.58;;;48.05;;
70126;SDS011;57491;42.694;23.314;2023-12-29T13:08:36;59.25;;;45.75;;
70126;SDS011;57491;42.694;23.314;2023-12-29T13:11:20;53.47;;;45.55;;
70126;SDS011;57491;42.694;23.314;2023-12-29T13:13:53;63.85;;;44.00;;
70126;SDS011;57491;42.694;23.314;2023-12-29T13:16:29;47.78;;;39.80;;
70126;SDS011;57491;42.694;23.314;2023-12-29T13:18:57;44.53;;;38.47;;
70126;SDS011;57491;42.694;23.314;2023-12-29T13:21:24;46.50;;;37.47;;
70126;SDS011;57491;42.694;23.314;2023-12-29T13:23:52;44.30;;;34.13;;
70126;SDS011;57491;42.694;23.314;2023-12-29T13:26:22;40.70;;;31.35;;
70126;SDS011;57491;42.694;23.314;2023-12-29T13:28:51;40.00;;;29.15;;
70126;SDS011;57491;42.694;23.314;2023-12-29T13:31:18;32.72;;;26.77;;
70126;SDS011;57491;42.694;23.314;2023-12-29T13:33:47;33.22;;;26.30;;
70126;SDS011;57491;42.694;23.314;2023-12-29T13:36:22;43.38;;;28.50;;
70126;SDS011;57491;42.694;23.314;2023-12-29T13:38:54;36.05;;;26.15;;
70126;SDS011;57491;42.694;23.314;2023-12-29T13:41:27;35.13;;;26.42;;
70126;SDS011;57491;42.694;23.314;2023-12-29T13:43:57;33.88;;;26.52;;
70126;SDS011;57491;42.694;23.314;2023-12-29T13:46:28;46.03;;;28.48;;
70126;SDS011;57491;42.694;23.314;2023-12-29T13:48:57;33.90;;;26.05;;
70126;SDS011;57491;42.694;23.314;2023-12-29T13:51:28;35.50;;;25.42;;
70126;SDS011;57491;42.694;23.314;2023-12-29T13:53:59;37.35;;;26.80;;
70126;SDS011;57491;42.694;23.314;2023-12-29T13:56:28;38.35;;;26.52;;
70126;SDS011;57491;42.694;23.314;2023-12-29T13:58:56;34.33;;;25.88;;
70126;SDS011;57491;42.694;23.314;2023-12-29T14:01:34;35.85;;;23.30;;
70126;SDS011;57491;42.694;23.314;2023-12-29T14:04:03;33.92;;;24.80;;
70126;SDS011;57491;42.694;23.314;2023-12-29T14:06:36;31.90;;;23.00;;
70126;SDS011;57491;42.694;23.314;2023-12-29T14:09:09;32.67;;;23.02;;
70126;SDS011;57491;42.694;23.314;2023-12-29T14:11:46;27.65;;;20.27;;
70126;SDS011;57491;42.694;23.314;2023-12-29T14:14:14;29.85;;;20.65;;
70126;SDS011;57491;42.694;23.314;2023-12-29T14:16:47;31.17;;;22.52;;
70126;SDS011;57491;42.694;23.314;2023-12-29T14:19:15;31.90;;;20.02;;
70126;SDS011;57491;42.694;23.314;2023-12-29T14:21:42;31.05;;;18.50;;
70126;SDS011;57491;42.694;23.314;2023-12-29T14:24:11;31.77;;;20.10;;
70126;SDS011;57491;42.694;23.314;2023-12-29T14:26:40;28.55;;;18.17;;
70126;SDS011;57491;42.694;23.314;2023-12-29T14:29:11;32.78;;;18.30;;
70126;SDS011;57491;42.694;23.314;2023-12-29T14:31:40;25.50;;;15.27;;
70126;SDS011;57491;42.694;23.314;2023-12-29T14:34:08;28.33;;;17.80;;
70126;SDS011;57491;42.694;23.314;2023-12-29T14:36:38;27.80;;;15.02;;
70126;SDS011;57491;42.694;23.314;2023-12-29T14:39:06;26.48;;;15.50;;
70126;SDS011;57491;42.694;23.314;2023-12-29T14:41:35;29.23;;;15.30;;
70126;SDS011;57491;42.694;23.314;2023-12-29T14:44:03;28.35;;;14.77;;
70126;SDS011;57491;42.694;23.314;2023-12-29T14:46:35;28.52;;;15.82;;
70126;SDS011;57491;42.694;23.314;2023-12-29T14:49:04;23.25;;;14.38;;